createdAt,value
2023-06-07T00:00:03.094Z,52.84
2023-06-07T00:02:44.182Z,52.50
2023-06-07T00:05:14.478Z,52.67
2023-06-07T00:07:43.318Z,52.56
2023-06-07T00:10:11.552Z,52.39
2023-06-07T00:12:40.183Z,52.17
2023-06-07T00:15:08.982Z,52.03
2023-06-07T00:17:39.120Z,51.81
2023-06-07T00:20:10.450Z,51.79
2023-06-07T00:22:39.724Z,51.85
2023-06-07T00:25:09.929Z,51.76
2023-06-07T00:27:37.864Z,51.76
2023-06-07T00:30:07.979Z,51.71
2023-06-07T00:32:36.100Z,51.87
2023-06-07T00:35:04.416Z,52.09
2023-06-07T00:37:32.236Z,51.71
2023-06-07T00:40:00.817Z,51.81
2023-06-07T00:42:29.055Z,51.53
2023-06-07T00:44:58.460Z,51.71
2023-06-07T00:47:27.673Z,51.68
2023-06-07T00:49:55.917Z,51.50
2023-06-07T00:52:24.132Z,51.51
2023-06-07T00:54:52.501Z,51.35
2023-06-07T00:57:22.468Z,51.28
2023-06-07T00:59:50.258Z,51.27
2023-06-07T01:02:18.394Z,51.21
2023-06-07T01:04:46.657Z,51.07
2023-06-07T01:07:18.875Z,51.22
2023-06-07T01:09:46.700Z,51.15
2023-06-07T01:12:17.294Z,51.32
2023-06-07T01:14:49.576Z,51.00
2023-06-07T01:17:19.537Z,51.01
2023-06-07T01:19:54.370Z,51.16
2023-06-07T01:22:29.095Z,51.12
2023-06-07T01:24:57.458Z,51.12
2023-06-07T01:27:28.722Z,50.82
2023-06-07T01:29:58.268Z,51.13
2023-06-07T01:32:27.553Z,50.63
2023-06-07T01:34:56.096Z,50.69
2023-06-07T01:37:26.067Z,50.67
2023-06-07T01:39:56.492Z,50.51
2023-06-07T01:42:25.201Z,50.33
2023-06-07T01:44:55.363Z,50.74
2023-06-07T01:47:23.636Z,50.59
2023-06-07T01:49:51.398Z,50.24
2023-06-07T01:52:19.167Z,50.43
2023-06-07T01:54:47.834Z,50.33
2023-06-07T01:57:30.790Z,50.37
2023-06-07T02:00:24.379Z,50.37
2023-06-07T02:03:17.897Z,50.42
2023-06-07T02:05:51.582Z,50.69
2023-06-07T02:08:35.718Z,50.66
2023-06-07T02:11:05.139Z,50.74
2023-06-07T02:13:41.039Z,50.81
2023-06-07T02:16:09.127Z,50.42
2023-06-07T02:18:42.239Z,50.87
2023-06-07T02:21:11.440Z,50.41
2023-06-07T02:23:39.699Z,50.91
2023-06-07T02:26:07.659Z,50.69
2023-06-07T02:28:35.708Z,50.31
2023-06-07T02:31:04.447Z,50.86
2023-06-07T02:33:32.317Z,50.60
2023-06-07T02:36:01.167Z,50.60
2023-06-07T02:38:29.144Z,50.51
2023-06-07T02:40:57.054Z,50.39
2023-06-07T02:43:26.530Z,50.83
2023-06-07T02:45:54.417Z,50.71
2023-06-07T02:48:23.642Z,50.77
2023-06-07T02:50:51.501Z,50.88
2023-06-07T02:53:19.916Z,50.45
2023-06-07T02:55:48.725Z,50.72
2023-06-07T02:58:16.849Z,50.72
2023-06-07T03:00:51.491Z,50.69
2023-06-07T03:03:20.991Z,50.39
2023-06-07T03:06:01.201Z,50.55
2023-06-07T03:08:33.633Z,50.82
2023-06-07T03:11:02.842Z,50.88
2023-06-07T03:13:35.434Z,50.92
2023-06-07T03:16:07.263Z,50.75
2023-06-07T03:18:43.329Z,50.74
2023-06-07T03:21:11.255Z,50.78
2023-06-07T03:23:39.974Z,50.65
2023-06-07T03:26:11.684Z,50.85
2023-06-07T03:28:40.105Z,50.59
2023-06-07T03:31:09.090Z,50.55
2023-06-07T03:33:46.247Z,50.83
2023-06-07T03:36:14.417Z,50.49
2023-06-07T03:38:46.397Z,50.75
2023-06-07T03:41:14.563Z,50.84
2023-06-07T03:43:42.659Z,50.78
2023-06-07T03:46:11.444Z,50.59
2023-06-07T03:48:39.631Z,50.63
2023-06-07T03:51:09.954Z,50.72
2023-06-07T03:53:43.133Z,50.34
2023-06-07T03:56:11.461Z,50.67
2023-06-07T03:58:40.034Z,50.38
2023-06-07T04:01:13.080Z,50.44
2023-06-07T04:03:41.403Z,50.50
2023-06-07T04:06:11.041Z,50.52
2023-06-07T04:08:40.053Z,50.54
2023-06-07T04:11:09.573Z,50.72
2023-06-07T04:13:38.248Z,50.25
2023-06-07T04:16:06.303Z,50.82
2023-06-07T04:18:34.093Z,50.36
2023-06-07T04:21:02.256Z,50.49
2023-06-07T04:23:34.766Z,50.53
2023-06-07T04:26:06.773Z,50.43
2023-06-07T04:28:36.127Z,50.79
2023-06-07T04:31:08.804Z,50.69
2023-06-07T04:33:38.771Z,50.83
2023-06-07T04:36:09.746Z,50.66
2023-06-07T04:38:57.489Z,50.95
2023-06-07T04:41:34.506Z,51.20
2023-06-07T04:44:06.730Z,50.82
2023-06-07T04:46:41.155Z,50.82
2023-06-07T04:49:18.616Z,50.72
2023-06-07T04:51:49.893Z,50.48
2023-06-07T04:54:19.378Z,50.64
2023-06-07T04:56:58.020Z,50.46
2023-06-07T04:59:36.341Z,50.72
2023-06-07T05:02:11.079Z,50.48
2023-06-07T05:04:39.649Z,50.98
2023-06-07T05:07:07.835Z,50.99
2023-06-07T05:09:39.849Z,50.95
2023-06-07T05:12:09.921Z,50.59
2023-06-07T05:14:38.582Z,50.50
2023-06-07T05:17:06.865Z,50.83
2023-06-07T05:19:36.146Z,50.49
2023-06-07T05:22:05.153Z,50.43
2023-06-07T05:24:35.188Z,50.63
2023-06-07T05:27:04.368Z,50.45
2023-06-07T05:29:32.586Z,50.72
2023-06-07T05:32:01.756Z,50.76
2023-06-07T05:34:31.375Z,50.77
2023-06-07T05:36:59.525Z,50.73
2023-06-07T05:39:29.747Z,50.52
2023-06-07T05:41:59.256Z,50.94
2023-06-07T05:44:27.165Z,51.12
2023-06-07T05:46:54.930Z,51.76
2023-06-07T05:49:25.251Z,51.77
2023-06-07T05:51:53.431Z,51.41
2023-06-07T05:54:24.288Z,51.07
2023-06-07T05:56:54.260Z,51.00
2023-06-07T05:59:22.445Z,50.95
2023-06-07T06:01:50.483Z,50.90
2023-06-07T06:04:18.882Z,50.87
2023-06-07T06:06:47.634Z,50.66
2023-06-07T06:09:15.396Z,50.99
2023-06-07T06:11:43.566Z,51.43
2023-06-07T06:14:11.853Z,51.15
2023-06-07T06:16:39.755Z,50.75
2023-06-07T06:19:07.632Z,50.99
2023-06-07T06:21:35.857Z,50.96
2023-06-07T06:24:04.242Z,50.83
2023-06-07T06:26:32.129Z,50.56
2023-06-07T06:29:01.935Z,50.50
2023-06-07T06:31:29.952Z,50.70
2023-06-07T06:34:00.353Z,50.70
2023-06-07T06:36:28.215Z,51.03
2023-06-07T06:38:56.538Z,51.18
2023-06-07T06:41:24.325Z,50.90
2023-06-07T06:43:52.724Z,50.84
2023-06-07T06:46:20.788Z,51.16
2023-06-07T06:49:02.739Z,50.92
2023-06-07T06:51:35.272Z,50.82
2023-06-07T06:54:03.298Z,51.20
2023-06-07T06:56:31.245Z,51.08
2023-06-07T06:58:59.026Z,50.77
2023-06-07T07:01:47.366Z,50.82
2023-06-07T07:04:17.448Z,51.20
2023-06-07T07:06:45.399Z,51.10
2023-06-07T07:09:13.895Z,51.23
2023-06-07T07:11:41.907Z,51.51
2023-06-07T07:14:09.897Z,51.39
2023-06-07T07:16:39.098Z,51.68
2023-06-07T07:19:07.393Z,51.20
2023-06-07T07:21:35.733Z,51.31
2023-06-07T07:24:04.803Z,51.57
2023-06-07T07:26:32.692Z,51.50
2023-06-07T07:29:00.993Z,51.68
2023-06-07T07:31:31.509Z,51.43
2023-06-07T07:33:59.455Z,51.62
2023-06-07T07:36:27.700Z,51.79
2023-06-07T07:38:56.395Z,51.66
2023-06-07T07:41:26.416Z,52.02
2023-06-07T07:43:54.178Z,52.07
2023-06-07T07:46:22.029Z,52.45
2023-06-07T07:48:49.836Z,51.96
2023-06-07T07:51:17.916Z,52.27
2023-06-07T07:53:45.737Z,52.36
2023-06-07T07:56:13.665Z,52.51
2023-06-07T07:58:41.349Z,52.49
2023-06-07T08:01:10.658Z,52.62
2023-06-07T08:03:38.757Z,52.46
2023-06-07T08:06:10.106Z,52.39
2023-06-07T08:08:39.231Z,52.51
2023-06-07T08:11:09.500Z,53.18
2023-06-07T08:13:37.802Z,53.42
2023-06-07T08:16:06.002Z,53.56
2023-06-07T08:18:33.858Z,53.71
2023-06-07T08:21:01.834Z,53.68
2023-06-07T08:23:29.762Z,53.87
2023-06-07T08:25:59.651Z,53.96
2023-06-07T08:28:30.172Z,53.75
2023-06-07T08:30:58.263Z,53.79
2023-06-07T08:33:28.573Z,53.68
2023-06-07T08:35:56.572Z,54.47
2023-06-07T08:38:24.450Z,54.17
2023-06-07T08:40:55.876Z,54.57
2023-06-07T08:43:24.966Z,54.25
2023-06-07T08:45:53.258Z,53.89
2023-06-07T08:48:22.311Z,53.57
2023-06-07T08:50:52.171Z,54.01
2023-06-07T08:53:35.502Z,53.80
2023-06-07T08:56:04.548Z,53.45
2023-06-07T08:58:33.194Z,53.22
2023-06-07T09:01:01.624Z,53.38
2023-06-07T09:03:30.054Z,53.19
2023-06-07T09:05:58.135Z,53.45
2023-06-07T09:08:26.034Z,53.21
2023-06-07T09:10:55.209Z,53.13
2023-06-07T09:13:23.463Z,53.10
2023-06-07T09:15:53.841Z,52.66
2023-06-07T09:18:22.137Z,52.61
2023-06-07T09:20:51.491Z,52.18
2023-06-07T09:23:21.277Z,51.96
2023-06-07T09:25:55.415Z,51.58
2023-06-07T09:28:23.307Z,51.68
2023-06-07T09:30:56.484Z,51.39
2023-06-07T09:33:31.845Z,51.30
2023-06-07T09:36:11.315Z,50.73
2023-06-07T09:38:39.713Z,50.82
2023-06-07T09:41:08.042Z,51.29
2023-06-07T09:43:49.161Z,51.48
2023-06-07T09:46:19.425Z,51.64
2023-06-07T09:48:54.465Z,51.50
2023-06-07T09:51:22.760Z,51.34
2023-06-07T09:53:58.697Z,51.55
2023-06-07T09:56:27.226Z,51.08
2023-06-07T09:59:12.376Z,50.66
2023-06-07T10:01:47.034Z,50.40
2023-06-07T10:04:15.928Z,49.96
2023-06-07T10:06:46.288Z,50.18
2023-06-07T10:09:18.082Z,49.72
2023-06-07T10:11:49.684Z,49.52
2023-06-07T10:14:21.850Z,48.87
2023-06-07T10:17:12.296Z,48.75
2023-06-07T10:19:47.103Z,49.14
2023-06-07T10:22:17.537Z,48.96
2023-06-07T10:25:05.674Z,48.54
2023-06-07T10:28:04.185Z,48.62
2023-06-07T10:30:35.342Z,48.74
2023-06-07T10:33:06.265Z,49.04
2023-06-07T10:35:35.378Z,48.80
2023-06-07T10:38:03.274Z,48.94
2023-06-07T10:40:32.870Z,48.76
2023-06-07T10:43:01.684Z,48.90
2023-06-07T10:45:30.023Z,48.96
2023-06-07T10:47:58.059Z,49.55
2023-06-07T10:50:29.076Z,49.29
2023-06-07T10:53:01.359Z,48.90
2023-06-07T10:55:32.985Z,49.36
2023-06-07T10:58:01.721Z,49.20
2023-06-07T11:00:31.837Z,49.21
2023-06-07T11:03:27.449Z,48.66
2023-06-07T11:05:58.729Z,49.41
2023-06-07T11:08:31.786Z,49.40
2023-06-07T11:11:03.248Z,49.57
2023-06-07T11:13:41.191Z,49.76
2023-06-07T11:16:24.503Z,49.89
2023-06-07T11:18:57.340Z,50.03
2023-06-07T11:21:29.714Z,50.04
2023-06-07T11:24:11.835Z,49.97
2023-06-07T11:26:42.183Z,50.22
2023-06-07T11:29:11.447Z,50.32
2023-06-07T11:32:03.191Z,50.04
2023-06-07T11:34:32.618Z,50.07
2023-06-07T11:37:17.895Z,50.00
2023-06-07T11:39:46.632Z,50.42
2023-06-07T11:42:17.612Z,50.49
2023-06-07T11:44:45.649Z,50.61
2023-06-07T11:47:13.515Z,50.17
2023-06-07T11:49:42.491Z,50.09
2023-06-07T11:52:10.832Z,49.93
2023-06-07T11:54:43.548Z,49.95
2023-06-07T11:57:11.562Z,49.83
2023-06-07T11:59:42.260Z,49.84
2023-06-07T12:02:10.260Z,50.27
2023-06-07T12:04:39.296Z,50.39
2023-06-07T12:07:33.846Z,50.27
2023-06-07T12:10:01.853Z,50.59
2023-06-07T12:12:29.842Z,50.49
2023-06-07T12:15:02.078Z,50.33
2023-06-07T12:17:36.070Z,50.44
2023-06-07T12:20:12.843Z,50.34
2023-06-07T12:22:40.659Z,50.22
2023-06-07T12:25:19.746Z,50.44
2023-06-07T12:27:48.678Z,50.44
2023-06-07T12:30:20.957Z,50.32
2023-06-07T12:32:51.421Z,50.73
2023-06-07T12:35:19.556Z,50.57
2023-06-07T12:37:47.380Z,50.62
2023-06-07T12:40:15.368Z,49.96
2023-06-07T12:42:43.519Z,50.08
2023-06-07T12:45:12.377Z,50.21
2023-06-07T12:47:42.128Z,50.03
2023-06-07T12:50:12.461Z,50.31
2023-06-07T12:52:40.727Z,50.37
2023-06-07T12:55:09.851Z,50.36
2023-06-07T12:57:37.782Z,50.54
2023-06-07T13:00:06.589Z,50.32
2023-06-07T13:02:35.930Z,50.64
2023-06-07T13:05:03.811Z,51.01
2023-06-07T13:07:32.063Z,51.11
2023-06-07T13:10:00.676Z,51.04
2023-06-07T13:12:28.853Z,51.05
2023-06-07T13:14:56.704Z,51.09
2023-06-07T13:17:26.202Z,51.11
2023-06-07T13:19:54.717Z,50.97
2023-06-07T13:22:22.858Z,50.90
2023-06-07T13:24:50.818Z,51.06
2023-06-07T13:27:18.704Z,50.83
2023-06-07T13:29:46.806Z,51.07
2023-06-07T13:32:15.203Z,51.20
2023-06-07T13:34:43.368Z,51.47
2023-06-07T13:37:11.158Z,51.45
2023-06-07T13:39:39.402Z,51.16
2023-06-07T13:42:07.593Z,51.24
2023-06-07T13:44:35.769Z,50.99
2023-06-07T13:47:04.013Z,51.37
2023-06-07T13:49:32.041Z,51.35
2023-06-07T13:51:59.939Z,51.07
2023-06-07T13:54:27.852Z,51.48
2023-06-07T13:56:55.747Z,51.28
2023-06-07T13:59:25.419Z,51.25
2023-06-07T14:01:54.215Z,51.36
2023-06-07T14:04:25.148Z,51.51
2023-06-07T14:06:53.314Z,51.88
2023-06-07T14:09:21.653Z,51.48
2023-06-07T14:11:50.440Z,51.71
2023-06-07T14:14:18.632Z,51.54
2023-06-07T14:16:46.523Z,51.80
2023-06-07T14:19:15.239Z,51.66
2023-06-07T14:21:43.196Z,51.59
2023-06-07T14:24:11.302Z,50.66
2023-06-07T14:26:39.206Z,50.48
2023-06-07T14:29:07.118Z,50.39
2023-06-07T14:31:35.100Z,50.13
2023-06-07T14:34:03.012Z,50.08
2023-06-07T14:36:31.205Z,49.78
2023-06-07T14:39:01.356Z,50.16
2023-06-07T14:41:29.286Z,49.96
2023-06-07T14:43:57.299Z,50.18
2023-06-07T14:46:25.355Z,50.04
2023-06-07T14:48:53.355Z,50.04
2023-06-07T14:51:24.634Z,49.98
2023-06-07T14:53:52.666Z,50.11
2023-06-07T14:56:20.556Z,50.37
2023-06-07T14:58:49.802Z,50.08
2023-06-07T15:01:18.577Z,49.92
2023-06-07T15:03:46.525Z,50.31
2023-06-07T15:06:14.530Z,50.23
2023-06-07T15:08:42.602Z,49.83
2023-06-07T15:11:10.674Z,50.10
2023-06-07T15:13:38.625Z,49.73
2023-06-07T15:16:06.591Z,49.97
2023-06-07T15:18:34.444Z,49.72
2023-06-07T15:21:02.290Z,49.87
2023-06-07T15:23:30.128Z,49.95
2023-06-07T15:26:01.151Z,49.30
2023-06-07T15:28:29.148Z,49.29
2023-06-07T15:30:57.005Z,49.26
2023-06-07T15:33:25.958Z,49.11
2023-06-07T15:35:53.908Z,49.51
2023-06-07T15:38:22.650Z,49.85
2023-06-07T15:40:50.533Z,50.01
2023-06-07T15:43:18.503Z,49.84
2023-06-07T15:45:48.160Z,49.52
2023-06-07T15:48:19.732Z,49.88
2023-06-07T15:50:48.071Z,50.06
2023-06-07T15:53:18.631Z,50.25
2023-06-07T15:55:47.162Z,50.04
2023-06-07T15:58:15.240Z,49.95
2023-06-07T16:00:47.477Z,50.13
2023-06-07T16:03:16.781Z,50.05
2023-06-07T16:05:44.775Z,50.19
2023-06-07T16:08:14.274Z,50.47
2023-06-07T16:10:44.173Z,50.39
2023-06-07T16:13:12.202Z,50.35
2023-06-07T16:15:40.044Z,50.38
2023-06-07T16:18:07.835Z,50.42
2023-06-07T16:20:35.894Z,50.16
2023-06-07T16:23:03.839Z,50.32
2023-06-07T16:25:35.745Z,50.09
2023-06-07T16:28:03.634Z,50.17
2023-06-07T16:30:31.925Z,49.92
2023-06-07T16:32:59.997Z,50.10
2023-06-07T16:35:28.074Z,50.10
2023-06-07T16:37:56.136Z,50.05
2023-06-07T16:40:24.581Z,50.14
2023-06-07T16:42:52.522Z,49.80
2023-06-07T16:45:20.786Z,50.02
2023-06-07T16:47:49.726Z,50.22
2023-06-07T16:50:17.876Z,50.30
2023-06-07T16:52:45.960Z,50.85
2023-06-07T16:55:14.244Z,50.21
2023-06-07T16:57:42.110Z,50.58
2023-06-07T17:00:10.641Z,50.60
2023-06-07T17:02:39.329Z,51.06
2023-06-07T17:05:07.964Z,50.73
2023-06-07T17:07:36.483Z,50.33
2023-06-07T17:10:04.932Z,50.53
2023-06-07T17:12:33.509Z,50.44
2023-06-07T17:15:01.570Z,50.43
2023-06-07T17:17:29.977Z,50.46
2023-06-07T17:19:58.189Z,50.36
2023-06-07T17:22:26.554Z,50.26
2023-06-07T17:24:56.451Z,50.31
2023-06-07T17:27:28.825Z,50.48
2023-06-07T17:29:56.647Z,50.70
2023-06-07T17:32:24.392Z,50.50
2023-06-07T17:34:53.631Z,50.29
2023-06-07T17:37:23.098Z,50.39
2023-06-07T17:39:53.280Z,50.17
2023-06-07T17:42:22.484Z,50.62
2023-06-07T17:44:53.370Z,50.66
2023-06-07T17:47:22.750Z,50.43
2023-06-07T17:49:50.752Z,50.55
2023-06-07T17:52:22.926Z,49.88
2023-06-07T17:54:51.779Z,49.85
2023-06-07T17:57:19.606Z,49.71
2023-06-07T17:59:47.387Z,49.74
2023-06-07T18:02:15.382Z,50.04
2023-06-07T18:04:43.152Z,49.98
2023-06-07T18:07:10.940Z,49.96
2023-06-07T18:09:40.577Z,50.24
2023-06-07T18:12:11.321Z,50.28
2023-06-07T18:14:41.480Z,50.41
2023-06-07T18:17:10.268Z,50.88
2023-06-07T18:19:39.070Z,50.62
2023-06-07T18:22:07.089Z,50.57
2023-06-07T18:24:34.820Z,50.25
2023-06-07T18:27:03.741Z,50.67
2023-06-07T18:29:34.021Z,50.78
2023-06-07T18:32:04.978Z,51.08
2023-06-07T18:34:35.087Z,51.43
2023-06-07T18:37:06.307Z,51.88
2023-06-07T18:39:34.757Z,51.64
2023-06-07T18:42:02.792Z,51.33
2023-06-07T18:44:32.087Z,51.04
2023-06-07T18:47:03.239Z,51.07
2023-06-07T18:49:31.691Z,50.77
2023-06-07T18:52:01.033Z,50.87
2023-06-07T18:54:29.120Z,50.97
2023-06-07T18:56:58.452Z,50.62
2023-06-07T18:59:26.539Z,50.13
2023-06-07T19:01:55.827Z,50.17
2023-06-07T19:04:25.423Z,50.71
2023-06-07T19:06:56.527Z,50.49
2023-06-07T19:09:24.347Z,51.08
2023-06-07T19:11:52.604Z,50.87
2023-06-07T19:14:20.570Z,50.45
2023-06-07T19:16:48.770Z,49.85
2023-06-07T19:19:16.756Z,49.51
2023-06-07T19:21:44.667Z,49.43
2023-06-07T19:24:12.885Z,49.63
2023-06-07T19:26:41.192Z,50.17
2023-06-07T19:29:09.117Z,50.06
2023-06-07T19:31:37.043Z,50.04
2023-06-07T19:34:07.022Z,50.19
2023-06-07T19:36:36.703Z,50.09
2023-06-07T19:39:04.567Z,50.20
2023-06-07T19:41:33.062Z,50.46
2023-06-07T19:44:01.006Z,51.29
2023-06-07T19:46:28.841Z,50.64
2023-06-07T19:48:58.421Z,50.91
2023-06-07T19:51:26.607Z,50.47
2023-06-07T19:53:57.951Z,50.50
2023-06-07T19:56:25.848Z,50.31
2023-06-07T19:58:53.623Z,50.78
2023-06-07T20:01:21.805Z,50.96
2023-06-07T20:03:49.707Z,50.88
2023-06-07T20:06:21.057Z,50.74
2023-06-07T20:09:08.331Z,51.42
2023-06-07T20:11:40.356Z,51.51
2023-06-07T20:14:09.646Z,51.39
2023-06-07T20:16:40.232Z,51.40
2023-06-07T20:19:32.316Z,52.04
2023-06-07T20:22:10.727Z,51.77
2023-06-07T20:24:48.827Z,52.09
2023-06-07T20:27:34.072Z,51.75
2023-06-07T20:31:07.405Z,52.03
2023-06-07T20:33:47.339Z,51.87
2023-06-07T20:36:32.022Z,51.52
2023-06-07T20:39:00.116Z,52.02
2023-06-07T20:41:34.937Z,52.29
2023-06-07T20:44:08.534Z,52.42
2023-06-07T20:46:37.151Z,51.80
2023-06-07T20:49:08.773Z,52.16
2023-06-07T20:51:40.730Z,51.89
2023-06-07T20:54:08.604Z,51.75
2023-06-07T20:56:36.484Z,51.77
2023-06-07T20:59:04.438Z,52.12
2023-06-07T21:01:34.774Z,51.51
2023-06-07T21:04:02.697Z,52.10
2023-06-07T21:06:30.880Z,52.03
2023-06-07T21:08:58.881Z,51.73
2023-06-07T21:11:26.985Z,51.92
2023-06-07T21:13:55.303Z,51.58
2023-06-07T21:16:23.157Z,51.65
2023-06-07T21:18:51.309Z,51.49
2023-06-07T21:21:19.252Z,51.25
2023-06-07T21:23:47.077Z,51.35
2023-06-07T21:26:15.146Z,51.34
2023-06-07T21:28:43.122Z,51.58
2023-06-07T21:31:12.053Z,51.27
2023-06-07T21:33:39.770Z,51.53
2023-06-07T21:36:07.726Z,51.44
2023-06-07T21:38:35.801Z,51.15
2023-06-07T21:41:03.588Z,51.30
2023-06-07T21:43:31.536Z,51.19
2023-06-07T21:45:59.399Z,50.87
2023-06-07T21:48:27.262Z,51.32
2023-06-07T21:50:55.879Z,50.66
2023-06-07T21:53:23.849Z,50.52
2023-06-07T21:55:51.719Z,50.78
2023-06-07T21:58:19.876Z,51.08
2023-06-07T22:00:49.738Z,51.03
2023-06-07T22:03:17.917Z,50.41
2023-06-07T22:05:45.845Z,50.29
2023-06-07T22:08:13.729Z,50.54
2023-06-07T22:10:42.830Z,51.32
2023-06-07T22:13:11.279Z,51.67
2023-06-07T22:15:41.097Z,51.39
2023-06-07T22:18:12.088Z,51.53
2023-06-07T22:20:41.552Z,51.53
2023-06-07T22:23:09.942Z,51.09
2023-06-07T22:25:41.461Z,51.09
2023-06-07T22:28:14.009Z,50.81
2023-06-07T22:30:42.517Z,51.14
2023-06-07T22:33:10.522Z,51.07
2023-06-07T22:35:41.255Z,50.95
2023-06-07T22:38:13.712Z,51.12
2023-06-07T22:40:43.232Z,50.71
2023-06-07T22:43:13.372Z,51.00
2023-06-07T22:45:42.790Z,50.83
2023-06-07T22:48:12.445Z,51.13
2023-06-07T22:50:44.391Z,51.54
2023-06-07T22:53:14.007Z,51.36
2023-06-07T22:55:42.542Z,50.82
2023-06-07T22:58:10.943Z,51.08
2023-06-07T23:00:40.641Z,50.82
2023-06-07T23:03:09.098Z,51.45
2023-06-07T23:05:38.388Z,51.50
2023-06-07T23:08:08.422Z,51.21
2023-06-07T23:10:38.377Z,51.35
2023-06-07T23:13:09.844Z,51.23
2023-06-07T23:15:43.393Z,51.48
2023-06-07T23:18:12.954Z,51.36
2023-06-07T23:21:08.861Z,51.14
2023-06-07T23:23:36.791Z,51.06
2023-06-07T23:26:06.360Z,51.14
2023-06-07T23:28:35.753Z,51.10
2023-06-07T23:31:04.434Z,51.32
2023-06-07T23:33:32.702Z,51.39
2023-06-07T23:36:02.238Z,50.96
2023-06-07T23:38:32.210Z,51.06
2023-06-07T23:41:02.212Z,51.05
2023-06-07T23:43:30.159Z,51.12
2023-06-07T23:45:58.807Z,50.84
2023-06-07T23:48:28.788Z,50.90
2023-06-07T23:50:56.636Z,51.14
2023-06-07T23:53:24.438Z,50.94
2023-06-07T23:55:54.183Z,50.83
2023-06-07T23:58:22.366Z,51.04
